createdAt,value
2022-12-31T00:00:47.199Z,76.62
2022-12-31T00:11:02.295Z,75.65
2022-12-31T00:21:06.467Z,75.54
2022-12-31T00:31:10.712Z,73.56
2022-12-31T00:41:14.177Z,71.89
2022-12-31T00:51:19.484Z,73.05
2022-12-31T01:01:34.193Z,72.48
2022-12-31T01:11:36.507Z,73.40
2022-12-31T01:21:40.815Z,73.89
2022-12-31T01:31:43.302Z,74.34
2022-12-31T01:41:47.369Z,74.49
2022-12-31T01:52:01.863Z,73.55
2022-12-31T02:02:05.826Z,73.23
2022-12-31T02:12:09.368Z,73.52
2022-12-31T02:22:23.930Z,74.82
2022-12-31T02:32:35.035Z,74.41
2022-12-31T02:42:37.351Z,73.81
2022-12-31T02:52:42.530Z,73.89
2022-12-31T03:02:47.152Z,73.88
2022-12-31T03:12:49.693Z,75.72
2022-12-31T03:22:51.900Z,74.45
2022-12-31T03:32:54.290Z,75.29
2022-12-31T03:42:56.732Z,75.71
2022-12-31T03:52:59.293Z,75.81
2022-12-31T04:03:01.508Z,75.91
2022-12-31T04:13:04.962Z,76.86
2022-12-31T04:23:07.391Z,77.45
2022-12-31T04:33:09.606Z,75.96
2022-12-31T04:43:11.804Z,76.30
2022-12-31T04:53:13.985Z,76.42
2022-12-31T05:03:21.364Z,77.29
2022-12-31T05:13:29.402Z,77.28
2022-12-31T05:23:35.168Z,76.26
2022-12-31T05:33:37.362Z,75.83
2022-12-31T05:43:39.583Z,76.69
2022-12-31T05:53:41.854Z,77.21
2022-12-31T06:03:44.124Z,77.47
2022-12-31T06:13:46.445Z,78.79
2022-12-31T06:23:49.159Z,78.85
2022-12-31T06:33:51.361Z,78.04
2022-12-31T06:43:53.695Z,77.91
2022-12-31T06:53:55.957Z,78.71
2022-12-31T07:04:01.368Z,77.61
2022-12-31T07:14:12.344Z,77.44
2022-12-31T07:24:15.223Z,75.74
2022-12-31T07:34:25.035Z,76.00
2022-12-31T07:44:35.595Z,74.83
2022-12-31T07:54:37.787Z,73.93
2022-12-31T08:04:54.553Z,73.66
2022-12-31T08:14:57.050Z,73.92
2022-12-31T08:25:17.939Z,72.89
2022-12-31T08:36:05.941Z,72.04
2022-12-31T08:46:19.205Z,71.79
2022-12-31T08:56:36.430Z,71.31
2022-12-31T09:06:47.256Z,70.89
2022-12-31T09:17:10.243Z,70.43
2022-12-31T09:27:35.789Z,69.64
2022-12-31T09:37:44.120Z,69.66
2022-12-31T09:48:24.553Z,70.05
2022-12-31T09:58:41.455Z,70.34
2022-12-31T10:09:17.399Z,69.99
2022-12-31T10:20:00.505Z,69.77
2022-12-31T10:30:13.892Z,68.88
2022-12-31T10:40:24.604Z,68.57
2022-12-31T10:50:38.505Z,68.74
2022-12-31T11:01:05.288Z,69.70
2022-12-31T11:11:28.718Z,69.85
2022-12-31T11:21:39.387Z,69.70
2022-12-31T11:32:01.665Z,69.89
2022-12-31T11:42:36.681Z,69.86
2022-12-31T11:52:41.629Z,70.02
2022-12-31T12:02:49.898Z,70.17
2022-12-31T12:12:53.613Z,70.22
2022-12-31T12:22:58.315Z,70.06
2022-12-31T12:33:04.888Z,69.56
2022-12-31T12:43:22.786Z,68.56
2022-12-31T12:53:58.604Z,67.85
2022-12-31T13:04:35.686Z,67.79
2022-12-31T13:14:47.354Z,68.01
2022-12-31T13:25:00.394Z,68.30
2022-12-31T13:35:24.799Z,67.84
2022-12-31T13:45:33.066Z,67.92
2022-12-31T13:55:56.619Z,68.45
2022-12-31T14:06:07.976Z,67.86
2022-12-31T14:16:35.096Z,68.50
2022-12-31T14:26:43.838Z,68.52
2022-12-31T14:37:15.717Z,68.72
2022-12-31T14:47:42.296Z,69.35
2022-12-31T14:58:26.050Z,69.28
2022-12-31T15:08:32.319Z,69.11
2022-12-31T15:19:08.840Z,68.69
2022-12-31T15:29:26.390Z,68.96
2022-12-31T15:39:31.156Z,68.90
2022-12-31T15:49:40.973Z,68.68
2022-12-31T15:59:44.267Z,68.52
2022-12-31T16:09:53.644Z,68.58
2022-12-31T16:19:58.515Z,68.99
2022-12-31T16:30:08.715Z,68.38
2022-12-31T16:40:21.088Z,68.23
2022-12-31T16:50:25.172Z,68.19
2022-12-31T17:00:27.888Z,68.10
2022-12-31T17:10:36.303Z,68.39
2022-12-31T17:20:38.486Z,69.38
2022-12-31T17:30:41.155Z,69.03
2022-12-31T17:40:52.433Z,68.82
2022-12-31T17:51:00.225Z,69.28
2022-12-31T18:01:06.456Z,69.57
2022-12-31T18:11:16.767Z,70.09
2022-12-31T18:21:37.502Z,69.11
2022-12-31T18:31:39.857Z,68.88
2022-12-31T18:41:49.784Z,68.38
2022-12-31T18:51:54.366Z,67.73
2022-12-31T19:01:56.865Z,67.22
2022-12-31T19:11:59.361Z,66.83
2022-12-31T19:22:01.902Z,66.19
2022-12-31T19:32:04.975Z,65.64
2022-12-31T19:42:15.286Z,65.85
2022-12-31T19:52:17.603Z,64.94
2022-12-31T20:02:20.056Z,63.32
2022-12-31T20:12:22.505Z,62.42
2022-12-31T20:22:24.874Z,60.34
2022-12-31T20:32:27.321Z,60.44
2022-12-31T20:42:29.646Z,59.86
2022-12-31T20:52:31.868Z,59.07
2022-12-31T21:02:41.973Z,59.34
2022-12-31T21:12:45.525Z,60.03
2022-12-31T21:22:47.821Z,59.60
2022-12-31T21:32:50.171Z,59.82
2022-12-31T21:42:52.466Z,59.69
2022-12-31T21:52:54.887Z,59.38
2022-12-31T22:03:16.793Z,59.24
2022-12-31T22:13:22.652Z,59.28
2022-12-31T22:23:24.954Z,58.94
2022-12-31T22:33:27.534Z,58.26
2022-12-31T22:43:32.219Z,57.27
2022-12-31T22:53:34.660Z,55.63
2022-12-31T23:03:37.036Z,55.50
2022-12-31T23:14:00.434Z,53.77
2022-12-31T23:24:04.475Z,54.97
2022-12-31T23:34:08.337Z,53.50
2022-12-31T23:44:12.138Z,53.52
2022-12-31T23:54:14.969Z,54.47
